Eric Mcallister — WDH6317 — position and weather

sailwx.info

Track history (hours):
 
Tides and Currents Weather Stations Pressure Air Temp Water Temp Dewpoint Dewpoint Depression Visibility Wind Speed Wind Dir Waves Ship Positions

Eric Mcallister

Owner: McAllister Towing & Transportation, Staten Island, NY. More information available from US FCC via Universal Licensing System and Coast Guard Vessel Documentation Center.

Last reported at 2018-Jul-22 16:57 UTC. Time now 2018-Jul-22 19:52 UTC.
Position N 40°39' W 074°10'.

Length 30 m; draft 4.4 m.

Type: Tug. MMSI: 367636710.

Date/timePositionNaut miles runAvg speedWind from/ knotsBaromVisibWave heightAir tempDewpointWater temp
2018-Jul-22 16:57N 40°39' W 074°10'0 0.2
2018-Jul-22 15:08N 40°38' W 074°10'0 0.3
2018-Jul-22 14:00N 40°39' W 074°10'2 3.8
2018-Jul-22 13:29N 40°40' W 074°08'0 0.2
2018-Jul-22 13:00N 40°40' W 074°08'2 3.4
2018-Jul-22 12:30N 40°39' W 074°08'3 6.6
2018-Jul-22 11:59N 40°38' W 074°03'0 0.8
2018-Jul-22 11:25N 40°37' W 074°03'1 3.1
2018-Jul-22 11:00N 40°39' W 074°04'5 9.2
2018-Jul-22 10:29N 40°39' W 074°10'0 0.7
2018-Jul-22 10:00N 40°38' W 074°10'2 3.9
2018-Jul-22 09:31N 40°39' W 074°07'2 3.2
2018-Jul-22 09:00N 40°39' W 074°05'0 0.0
2018-Jul-22 08:30N 40°39' W 074°05'1 1.7
2018-Jul-22 07:57N 40°39' W 074°04'0 0.9
2018-Jul-22 07:31N 40°39' W 074°05'4 7.0
2018-Jul-22 06:59N 40°39' W 074°09'0 0.9
2018-Jul-22 06:30N 40°38' W 074°10'0 0.0
2018-Jul-22 05:58N 40°38' W 074°10'0 0.0
2018-Jul-22 05:24N 40°38' W 074°10'0 0.0
2018-Jul-22 04:55N 40°38' W 074°10'0 0.0
2018-Jul-22 04:29N 40°38' W 074°10'1 0.2
2018-Jul-22 02:02N 40°39' W 074°10'011.1
2018-Jul-22 02:00N 40°39' W 074°10'2 4.9
2018-Jul-22 01:31N 40°41' W 074°09'0 0.0
2018-Jul-22 01:00N 40°41' W 074°09'0 0.0
2018-Jul-22 00:30N 40°41' W 074°09'0 0.0
2018-Jul-22 00:01N 40°41' W 074°09'1 1.9
2018-Jul-21 23:29N 40°40' W 074°08'1 2.8
2018-Jul-21 23:00N 40°39' W 074°09'5 9.7
2018-Jul-21 22:30N 40°37' W 074°03'5 1.1
2018-Jul-21 18:20N 40°33' W 074°02'310.0
2018-Jul-21 18:01N 40°36' W 074°03'4 8.2
2018-Jul-21 17:31N 40°39' W 074°07'2 1.2
2018-Jul-21 15:46N 40°38' W 074°10'0 0.0
2018-Jul-21 15:31N 40°38' W 074°10'0 0.0
2018-Jul-21 15:00N 40°38' W 074°10'1 2.6
2018-Jul-21 14:30N 40°39' W 074°08'2 1.7
2018-Jul-21 13:30N 40°40' W 074°08'0 0.3
2018-Jul-21 13:01N 40°40' W 074°08'2 3.8
2018-Jul-21 12:30N 40°39' W 074°10'0 0.3
2018-Jul-21 11:59N 40°38' W 074°10'0 0.0
2018-Jul-21 11:30N 40°38' W 074°10'0 0.0
2018-Jul-21 11:00N 40°38' W 074°10'0 0.0
2018-Jul-21 10:30N 40°38' W 074°10'0 0.0
2018-Jul-21 10:00N 40°38' W 074°10'0 0.0
2018-Jul-21 09:30N 40°38' W 074°10'0 0.0
2018-Jul-21 08:58N 40°38' W 074°10'2 3.2
2018-Jul-21 08:29N 40°38' W 074°12'0 0.6
2018-Jul-21 08:00N 40°38' W 074°12'0 0.7
2018-Jul-21 07:26N 40°38' W 074°12'2 5.4
2018-Jul-21 07:00N 40°38' W 074°09'3 6.8
2018-Jul-21 06:31N 40°39' W 074°04'1 2.4
2018-Jul-21 06:00N 40°38' W 074°04'4 7.3
2018-Jul-21 05:30N 40°39' W 074°08'1 2.4
2018-Jul-21 04:59N 40°39' W 074°10'1 1.8
2018-Jul-21 04:20N 40°39' W 074°09'1 2.8
2018-Jul-21 04:01N 40°39' W 074°08'4 7.7
2018-Jul-21 03:31N 40°39' W 074°03'2 3.3
2018-Jul-21 03:00N 40°39' W 074°06'3 6.6
2018-Jul-21 02:30N 40°38' W 074°10'0 0.0
2018-Jul-21 02:01N 40°38' W 074°10'0 0.0
2018-Jul-21 01:28N 40°38' W 074°10'0 0.0
2018-Jul-21 01:00N 40°38' W 074°10'0 0.0
2018-Jul-21 00:16N 40°38' W 074°10'0 0.0
2018-Jul-21 00:00N 40°38' W 074°10'0 0.0
2018-Jul-20 23:30N 40°38' W 074°10'0 0.0
2018-Jul-20 22:58N 40°38' W 074°10'0 0.0
2018-Jul-20 22:28N 40°38' W 074°10'0 0.0
2018-Jul-20 21:56N 40°38' W 074°10'0 0.0
2018-Jul-20 21:30N 40°38' W 074°10'0 0.0
2018-Jul-20 20:59N 40°38' W 074°10'0 0.0
2018-Jul-20 20:30N 40°38' W 074°10'0 0.0
2018-Jul-20 19:59N 40°38' W 074°10'0 0.0
2018-Jul-20 19:30N 40°38' W 074°10'3 1.3
2018-Jul-20 17:20N 40°36' W 074°12'2 4.3
2018-Jul-20 16:56N 40°38' W 074°12'0 0.1
2018-Jul-20 16:20N 40°38' W 074°12'0 0.7
2018-Jul-20 16:00N 40°38' W 074°12'3 4.9
2018-Jul-20 15:30N 40°39' W 074°09'1 2.9
2018-Jul-20 15:00N 40°40' W 074°08'0 0.0
2018-Jul-20 14:30N 40°40' W 074°08'0 0.0
2018-Jul-20 14:00N 40°40' W 074°08'2 3.8
2018-Jul-20 13:26N 40°39' W 074°10'4 6.5
2018-Jul-20 12:53N 40°36' W 074°12'1 1.0
2018-Jul-20 12:23N 40°35' W 074°13'1 1.0
2018-Jul-20 11:31N 40°36' W 074°12'0 4.7
2018-Jul-20 11:30N 40°36' W 074°12'3 5.8
2018-Jul-20 11:00N 40°39' W 074°11'2 3.0
2018-Jul-20 10:31N 40°39' W 074°09'2 3.1
2018-Jul-20 10:00N 40°40' W 074°08'1 2.0
2018-Jul-20 09:30N 40°39' W 074°09'2 4.5
2018-Jul-20 09:00N 40°39' W 074°06'2 4.9
2018-Jul-20 08:30N 40°38' W 074°03'1 2.9
2018-Jul-20 08:00N 40°39' W 074°04'4 6.4
2018-Jul-20 07:20N 40°38' W 074°10'0 0.0
2018-Jul-20 07:00N 40°38' W 074°10'0 0.0
2018-Jul-20 06:30N 40°38' W 074°10'0 0.0
2018-Jul-20 05:59N 40°38' W 074°10'0 0.0
2018-Jul-20 05:18N 40°38' W 074°10'0 0.0
2018-Jul-20 04:56N 40°38' W 074°10'0 0.0
2018-Jul-20 04:26N 40°38' W 074°10'0 0.0
2018-Jul-20 03:59N 40°38' W 074°10'0 1.0
2018-Jul-20 03:30N 40°39' W 074°09'0 0.8
2018-Jul-20 03:00N 40°39' W 074°09'1 2.5
2018-Jul-20 02:30N 40°40' W 074°08'0 0.1
2018-Jul-20 02:00N 40°40' W 074°08'2 3.1
2018-Jul-20 01:30N 40°39' W 074°09'2 3.7
2018-Jul-20 01:00N 40°41' W 074°08'1 1.0
2018-Jul-20 00:30N 40°41' W 074°09'0 0.2
2018-Jul-20 00:00N 40°41' W 074°09'0 0.0
2018-Jul-19 23:30N 40°41' W 074°09'0 0.0
2018-Jul-19 22:57N 40°41' W 074°09'0 0.0
2018-Jul-19 22:30N 40°41' W 074°09'1 2.0
2018-Jul-19 22:00N 40°40' W 074°09'0 1.0
2018-Jul-19 21:30N 40°40' W 074°09'1 1.7
2018-Jul-19 20:55N 40°39' W 074°09'2 5.6
2018-Jul-19 20:30N 40°39' W 074°06'3 5.0
2018-Jul-19 20:00N 40°37' W 074°03'0 0.8
2018-Jul-19 19:30N 40°38' W 074°04'2 4.1
2018-Jul-19 19:00N 40°39' W 074°05'1 1.4
2018-Jul-19 18:26N 40°39' W 074°06'0 0.0
2018-Jul-19 18:00N 40°39' W 074°06'0 0.0
2018-Jul-19 17:30N 40°39' W 074°06'0 0.0
2018-Jul-19 17:00N 40°39' W 074°06'0 0.1
2018-Jul-19 16:30N 40°39' W 074°06'1 1.4
2018-Jul-19 16:00N 40°39' W 074°07'0 0.0
2018-Jul-19 15:30N 40°39' W 074°07'0 0.0
2018-Jul-19 14:56N 40°39' W 074°07'0 0.0
2018-Jul-19 13:50N 40°39' W 074°07'0 0.0
2018-Jul-19 13:27N 40°39' W 074°07'2 3.7
2018-Jul-19 13:00N 40°40' W 074°08'1 1.0
2018-Jul-19 12:30N 40°40' W 074°08'0 0.0
2018-Jul-19 12:00N 40°40' W 074°08'0 0.0
2018-Jul-19 11:30N 40°40' W 074°08'0 0.0
2018-Jul-19 11:00N 40°40' W 074°08'0 0.0
2018-Jul-19 10:30N 40°40' W 074°08'0 0.0
2018-Jul-19 10:00N 40°40' W 074°08'0 0.0
2018-Jul-19 09:30N 40°40' W 074°08'0 0.0
2018-Jul-19 09:00N 40°40' W 074°08'0 0.0
2018-Jul-19 08:30N 40°40' W 074°08'0 0.0
2018-Jul-19 08:00N 40°40' W 074°08'0 0.0
2018-Jul-19 07:30N 40°40' W 074°08'0 0.0
2018-Jul-19 07:00N 40°40' W 074°08'0 0.0
2018-Jul-19 06:30N 40°40' W 074°08'0 0.0
2018-Jul-19 06:00N 40°40' W 074°08'0 0.0
2018-Jul-19 05:30N 40°40' W 074°08'0 0.0
2018-Jul-19 05:00N 40°40' W 074°08'2 3.6
2018-Jul-19 04:30N 40°39' W 074°09'2 3.0
2018-Jul-19 03:58N 40°39' W 074°11'0 0.5
2018-Jul-19 03:18N 40°38' W 074°11'1 0.1
2018-Jul-18 18:15N 40°38' W 074°10'1 3.2
2018-Jul-18 18:00N 40°39' W 074°09'2 4.3
2018-Jul-18 17:30N 40°41' W 074°08'1 1.1
2018-Jul-18 16:43N 40°42' W 074°08'1 6.2
2018-Jul-18 16:30N 40°40' W 074°08'2 2.8
2018-Jul-18 15:39N 40°38' W 074°10'0 0.0
2018-Jul-18 15:22N 40°38' W 074°10'0 0.0
2018-Jul-18 14:50N 40°38' W 074°10'0 0.0
2018-Jul-18 14:14N 40°38' W 074°10'0 0.0
2018-Jul-18 13:24N 40°38' W 074°10'0 0.0
2018-Jul-18 13:00N 40°38' W 074°10'2 4.7
2018-Jul-18 12:30N 40°41' W 074°09'0 0.3
2018-Jul-18 12:00N 40°41' W 074°08'2 3.9
2018-Jul-18 11:30N 40°39' W 074°09'2 1.6
2018-Jul-18 10:30N 40°40' W 074°08'0 0.1
2018-Jul-18 10:00N 40°40' W 074°08'2 3.1
2018-Jul-18 09:30N 40°39' W 074°08'3 5.9
2018-Jul-18 09:00N 40°39' W 074°04'4 6.6
2018-Jul-18 08:28N 40°36' W 074°03'1 3.2
2018-Jul-18 08:00N 40°37' W 074°03'4 8.9
2018-Jul-18 07:30N 40°39' W 074°09'1 1.3
2018-Jul-18 06:55N 40°38' W 074°10'0 0.0
2018-Jul-18 06:14N 40°38' W 074°10'0 0.0
2018-Jul-18 05:59N 40°38' W 074°10'0 0.0
2018-Jul-18 05:18N 40°38' W 074°10'0 0.0
2018-Jul-18 05:00N 40°38' W 074°10'3 6.7
2018-Jul-18 04:30N 40°39' W 074°06'2 5.0
2018-Jul-18 04:00N 40°39' W 074°09'2 4.6
2018-Jul-18 03:29N 40°41' W 074°08'0 0.0
2018-Jul-18 01:23N 40°41' W 074°08'1 2.2
2018-Jul-18 00:59N 40°41' W 074°09'0 0.4
2018-Jul-18 00:30N 40°41' W 074°09'2 4.2
2018-Jul-18 00:00N 40°39' W 074°09'3 5.2
2018-Jul-17 23:30N 40°39' W 074°06'3 6.6
2018-Jul-17 23:00N 40°36' W 074°03'3 5.4
2018-Jul-17 22:30N 40°39' W 074°04'4 8.2
2018-Jul-17 21:58N 40°39' W 074°10'2 3.5
2018-Jul-17 21:30N 40°40' W 074°09'1 2.9
2018-Jul-17 21:01N 40°39' W 074°07'3 6.3
2018-Jul-17 20:30N 40°38' W 074°03'1 1.5
2018-Jul-17 20:00N 40°38' W 074°03'2 4.5
2018-Jul-17 19:30N 40°40' W 074°04'0 0.1
2018-Jul-17 19:00N 40°40' W 074°04'0 0.3
2018-Jul-17 18:30N 40°40' W 074°04'1 1.0
2018-Jul-17 18:00N 40°40' W 074°03'1 2.8
2018-Jul-17 17:30N 40°38' W 074°03'1 1.4
2018-Jul-17 17:00N 40°39' W 074°04'5 8.5
2018-Jul-17 16:27N 40°39' W 074°10'0 0.2
2018-Jul-17 14:24N 40°38' W 074°10'1 2.9
2018-Jul-17 14:00N 40°39' W 074°09'2 3.6
2018-Jul-17 13:19N 40°42' W 074°09'1 2.7
2018-Jul-17 13:00N 40°41' W 074°08'3 5.2
2018-Jul-17 12:30N 40°39' W 074°08'4 7.4
2018-Jul-17 12:00N 40°39' W 074°03'1 2.9
2018-Jul-17 11:30N 40°39' W 074°05'4 5.4
2018-Jul-17 10:51N 40°38' W 074°10'2 7.2
2018-Jul-17 10:30N 40°41' W 074°09'0 0.5
2018-Jul-17 10:00N 40°41' W 074°09'2 4.9
2018-Jul-17 09:30N 40°39' W 074°10'0 0.0
2018-Jul-17 05:33N 40°38' W 074°10'0 9.1
2018-Jul-17 05:31N 40°39' W 074°10'1 3.0
2018-Jul-17 05:00N 40°40' W 074°09'0 0.3
2018-Jul-17 04:30N 40°40' W 074°09'2 3.0
2018-Jul-17 03:59N 40°39' W 074°07'3 6.3
2018-Jul-17 03:30N 40°38' W 074°03'3 5.3
2018-Jul-17 02:59N 40°39' W 074°07'2 2.3
2018-Jul-17 01:57N 40°38' W 074°10'0 0.0
2018-Jul-17 01:27N 40°38' W 074°10'4 9.7
2018-Jul-17 01:00N 40°39' W 074°04'3 6.6
2018-Jul-17 00:30N 40°39' W 074°09'1 0.9
2018-Jul-16 23:29N 40°38' W 074°10'0 0.0
2018-Jul-16 23:00N 40°38' W 074°10'0 0.0
2018-Jul-16 18:59N 40°38' W 074°10'4 7.6
2018-Jul-16 18:30N 40°39' W 074°05'1 1.6
2018-Jul-16 18:00N 40°40' W 074°04'0 0.0
2018-Jul-16 17:28N 40°40' W 074°04'0 0.0
2018-Jul-16 17:00N 40°40' W 074°04'0 0.0
2018-Jul-16 16:25N 40°40' W 074°04'0 0.0
2018-Jul-16 15:58N 40°40' W 074°04'1 1.3
2018-Jul-16 15:30N 40°39' W 074°05'4 1.1
2018-Jul-16 12:02N 40°38' W 074°10'0 6.3
2018-Jul-16 11:59N 40°39' W 074°10'2 4.7
2018-Jul-16 11:30N 40°41' W 074°09'0 0.4
2018-Jul-16 11:00N 40°41' W 074°09'2 3.7
2018-Jul-16 10:31N 40°39' W 074°09'1 2.6
2018-Jul-16 10:00N 40°40' W 074°08'2 3.3
2018-Jul-16 09:30N 40°39' W 074°09'3 4.9
2018-Jul-16 08:59N 40°39' W 074°06'3 5.5
2018-Jul-16 08:30N 40°37' W 074°03'4 8.1
2018-Jul-16 08:00N 40°39' W 074°08'1 0.3
2018-Jul-16 03:34N 40°38' W 074°10'0 0.0
2018-Jul-16 03:06N 40°38' W 074°10'0 0.1
2018-Jul-16 02:54N 40°38' W 074°10'2 4.6
2018-Jul-16 02:30N 40°39' W 074°07'5 9.0
2018-Jul-16 02:00N 40°41' W 074°02'2 3.2
2018-Jul-16 01:30N 40°41' W 074°00'2 3.3
2018-Jul-16 01:00N 40°41' W 074°02'4 8.7
2018-Jul-16 00:30N 40°39' W 074°07'2 3.0
2018-Jul-15 23:51N 40°38' W 074°10'3 7.9
2018-Jul-15 23:29N 40°39' W 074°06'510.1
2018-Jul-15 23:00N 40°42' W 074°01'2 3.8
2018-Jul-15 22:30N 40°42' W 073°58'0 0.0
2018-Jul-15 22:00N 40°42' W 073°58'0 0.0
2018-Jul-15 21:30N 40°42' W 073°58'0 0.0
2018-Jul-15 21:00N 40°42' W 073°58'0 0.0
2018-Jul-15 20:30N 40°42' W 073°58'1 3.0
2018-Jul-15 20:00N 40°42' W 074°00'5 9.6
2018-Jul-15 19:30N 40°39' W 074°05'0 0.3
2018-Jul-15 19:00N 40°39' W 074°05'0 0.0
2018-Jul-15 18:29N 40°39' W 074°05'0 0.2
2018-Jul-15 18:00N 40°39' W 074°06'3 0.7
2018-Jul-15 13:16N 40°38' W 074°10'0 0.0
2018-Jul-15 12:18N 40°38' W 074°10'0 0.0
2018-Jul-15 11:59N 40°38' W 074°10'14 4.4
2018-Jul-15 08:49N 40°47' W 073°55'2 5.8
2018-Jul-15 08:29N 40°46' W 073°57'3 7.2
2018-Jul-15 08:00N 40°42' W 073°59'4 8.9
2018-Jul-15 07:30N 40°40' W 074°04'5 9.7
2018-Jul-15 07:00N 40°39' W 074°10'0 0.0
2018-Jul-15 03:46N 40°38' W 074°10'0 0.0
2018-Jul-15 03:13N 40°38' W 074°10'0 0.0
2018-Jul-15 02:46N 40°38' W 074°10'0 0.0
2018-Jul-15 02:30N 40°38' W 074°10'0 0.0
2018-Jul-15 01:54N 40°38' W 074°10'0 0.0
2018-Jul-15 00:51N 40°38' W 074°10'0 0.0
2018-Jul-15 00:25N 40°38' W 074°10'0 0.0
2018-Jul-14 20:05N 40°38' W 074°10'2 1.0
2018-Jul-14 17:58N 40°37' W 074°12'1 1.1
2018-Jul-14 17:30N 40°38' W 074°12'0 0.1
2018-Jul-14 16:11N 40°38' W 074°12'1 6.9
2018-Jul-14 15:59N 40°39' W 074°11'2 3.5
2018-Jul-14 15:30N 40°39' W 074°09'1 1.2
2018-Jul-14 15:00N 40°40' W 074°09'2 1.8
2018-Jul-14 14:00N 40°38' W 074°10'0 0.0
2018-Jul-14 13:30N 40°38' W 074°10'0 0.0
2018-Jul-14 13:00N 40°38' W 074°10'0 0.0
2018-Jul-14 12:30N 40°38' W 074°10'0 0.0
2018-Jul-14 11:59N 40°38' W 074°10'2 3.5
2018-Jul-14 11:27N 40°39' W 074°07'1 3.1
2018-Jul-14 11:00N 40°40' W 074°08'1 2.3
2018-Jul-14 10:30N 40°41' W 074°09'0 0.6
2018-Jul-14 09:51N 40°41' W 074°09'2 5.8
2018-Jul-14 09:30N 40°39' W 074°09'1 1.2
2018-Jul-14 09:00N 40°39' W 074°09'2 3.5
2018-Jul-14 08:30N 40°39' W 074°11'0 0.6
2018-Jul-14 08:00N 40°39' W 074°11'1 2.1
2018-Jul-14 07:30N 40°38' W 074°10'0 0.0
2018-Jul-14 07:00N 40°38' W 074°10'0 0.0
2018-Jul-14 06:29N 40°38' W 074°10'0 0.0
2018-Jul-14 05:59N 40°38' W 074°10'0 0.0
2018-Jul-14 05:30N 40°38' W 074°10'0 0.0
2018-Jul-14 05:00N 40°38' W 074°10'0 0.0
2018-Jul-14 04:29N 40°38' W 074°10'0 0.0
2018-Jul-14 04:00N 40°38' W 074°10'0 0.0
2018-Jul-14 03:30N 40°38' W 074°10'0 0.0
2018-Jul-14 03:00N 40°38' W 074°10'0 0.0
2018-Jul-14 02:30N 40°38' W 074°10'0 0.1
2018-Jul-14 02:01N 40°39' W 074°10'3 7.0
2018-Jul-14 01:30N 40°39' W 074°05'0 0.0
2018-Jul-14 01:00N 40°39' W 074°05'0 0.3
2018-Jul-14 00:29N 40°39' W 074°05'2 3.6
2018-Jul-14 00:00N 40°38' W 074°03'0 0.9
2018-Jul-13 23:30N 40°38' W 074°04'4 7.4
2018-Jul-13 23:01N 40°38' W 074°09'1 1.0
2018-Jul-13 22:10N 40°38' W 074°10'0 0.0
2018-Jul-13 22:00N 40°38' W 074°10'0 0.0
2018-Jul-13 21:26N 40°38' W 074°10'0 0.0
2018-Jul-13 20:45N 40°38' W 074°10'0 0.0
2018-Jul-13 20:27N 40°38' W 074°10'0 0.0
2018-Jul-13 20:00N 40°38' W 074°10'0 0.0
2018-Jul-13 19:19N 40°38' W 074°10'0 0.0
2018-Jul-13 18:47N 40°38' W 074°10'0 0.0
2018-Jul-13 18:22N 40°38' W 074°10'0 0.0
2018-Jul-13 17:58N 40°38' W 074°10'0 0.0
2018-Jul-13 17:28N 40°38' W 074°10'0 0.0
2018-Jul-13 16:59N 40°38' W 074°10'0 0.0
2018-Jul-13 16:26N 40°38' W 074°10'0 0.0
2018-Jul-13 15:59N 40°38' W 074°10'0 0.0
2018-Jul-13 15:30N 40°38' W 074°10'0 0.0
2018-Jul-13 15:00N 40°38' W 074°10'0 0.0
2018-Jul-13 13:59N 40°38' W 074°10'0 0.0
2018-Jul-13 13:28N 40°38' W 074°10'0 0.0
2018-Jul-13 13:00N 40°38' W 074°10'0 0.0
2018-Jul-13 12:30N 40°38' W 074°10'1 2.1
2018-Jul-13 12:00N 40°39' W 074°09'2 3.9
2018-Jul-13 11:31N 40°41' W 074°09'0 0.6
2018-Jul-13 11:00N 40°41' W 074°09'2 4.6
2018-Jul-13 10:31N 40°39' W 074°09'4 7.0
2018-Jul-13 10:00N 40°39' W 074°04'3 5.9
2018-Jul-13 09:31N 40°36' W 074°03'3 6.5
2018-Jul-13 09:00N 40°39' W 074°05'3 6.1
2018-Jul-13 08:31N 40°39' W 074°09'1 2.9
2018-Jul-13 08:00N 40°40' W 074°08'1 1.9
2018-Jul-13 07:31N 40°41' W 074°09'0 0.4
2018-Jul-13 07:00N 40°41' W 074°09'2 3.1
2018-Jul-13 06:30N 40°39' W 074°09'1 1.7
2018-Jul-13 05:44N 40°38' W 074°10'0 0.0
2018-Jul-13 05:29N 40°38' W 074°10'0 0.0
2018-Jul-13 04:23N 40°38' W 074°10'0 0.0
2018-Jul-13 04:00N 40°38' W 074°10'0 0.0
2018-Jul-13 03:30N 40°38' W 074°10'0 0.5
2018-Jul-13 03:00N 40°39' W 074°10'1 1.4
2018-Jul-13 02:30N 40°39' W 074°09'2 3.9
2018-Jul-13 02:00N 40°41' W 074°08'0 0.3
2018-Jul-13 01:30N 40°41' W 074°09'2 4.6
2018-Jul-13 01:00N 40°38' W 074°10'0 0.0
2018-Jul-13 00:30N 40°38' W 074°10'0 0.0
2018-Jul-13 00:00N 40°38' W 074°10'0 0.0
2018-Jul-12 23:30N 40°38' W 074°10'0 0.0
2018-Jul-12 23:00N 40°38' W 074°10'0 0.0
2018-Jul-12 22:30N 40°38' W 074°10'0 0.0
2018-Jul-12 22:00N 40°38' W 074°10'0 0.0
2018-Jul-12 21:30N 40°38' W 074°10'0 0.0
2018-Jul-12 21:00N 40°38' W 074°10'0 0.7
2018-Jul-12 20:31N 40°39' W 074°10'4 8.8
2018-Jul-12 20:00N 40°40' W 074°04'4 7.7
2018-Jul-12 19:30N 40°39' W 074°09'2 3.5
2018-Jul-12 19:00N 40°40' W 074°08'0 0.4
2018-Jul-12 18:30N 40°40' W 074°09'2 4.0
2018-Jul-12 18:01N 40°39' W 074°06'1 2.0
2018-Jul-12 17:30N 40°39' W 074°05'0 0.7
2018-Jul-12 17:00N 40°39' W 074°06'  
Track history (hours):
 
Tides and Currents Weather Stations Pressure Air Temp Water Temp Dewpoint Dewpoint Depression Visibility Wind Speed Wind Dir Waves Ship Positions

Eric Mcallister

Owner: McAllister Towing & Transportation, Staten Island, NY. More information available from US FCC via Universal Licensing System and Coast Guard Vessel Documentation Center.

Last reported at 2018-Jul-22 16:57 UTC. Time now 2018-Jul-22 19:52 UTC.
Position N 40°39' W 074°10'.

Length 30 m; draft 4.4 m.

Type: Tug. MMSI: 367636710.

Date/timePositionNaut miles runAvg speedWind from/ knotsBaromVisibWave heightAir tempDewpointWater temp
2018-Jul-22 16:57N 40°39' W 074°10'0 0.2
2018-Jul-22 15:08N 40°38' W 074°10'0 0.3
2018-Jul-22 14:00N 40°39' W 074°10'2 3.8
2018-Jul-22 13:29N 40°40' W 074°08'0 0.2
2018-Jul-22 13:00N 40°40' W 074°08'2 3.4
2018-Jul-22 12:30N 40°39' W 074°08'3 6.6
2018-Jul-22 11:59N 40°38' W 074°03'0 0.8
2018-Jul-22 11:25N 40°37' W 074°03'1 3.1
2018-Jul-22 11:00N 40°39' W 074°04'5 9.2
2018-Jul-22 10:29N 40°39' W 074°10'0 0.7
2018-Jul-22 10:00N 40°38' W 074°10'2 3.9
2018-Jul-22 09:31N 40°39' W 074°07'2 3.2
2018-Jul-22 09:00N 40°39' W 074°05'0 0.0
2018-Jul-22 08:30N 40°39' W 074°05'1 1.7
2018-Jul-22 07:57N 40°39' W 074°04'0 0.9
2018-Jul-22 07:31N 40°39' W 074°05'4 7.0
2018-Jul-22 06:59N 40°39' W 074°09'0 0.9
2018-Jul-22 06:30N 40°38' W 074°10'0 0.0
2018-Jul-22 05:58N 40°38' W 074°10'0 0.0
2018-Jul-22 05:24N 40°38' W 074°10'0 0.0
2018-Jul-22 04:55N 40°38' W 074°10'0 0.0
2018-Jul-22 04:29N 40°38' W 074°10'1 0.2
2018-Jul-22 02:02N 40°39' W 074°10'011.1
2018-Jul-22 02:00N 40°39' W 074°10'2 4.9
2018-Jul-22 01:31N 40°41' W 074°09'0 0.0
2018-Jul-22 01:00N 40°41' W 074°09'0 0.0
2018-Jul-22 00:30N 40°41' W 074°09'0 0.0
2018-Jul-22 00:01N 40°41' W 074°09'1 1.9
2018-Jul-21 23:29N 40°40' W 074°08'1 2.8
2018-Jul-21 23:00N 40°39' W 074°09'5 9.7
2018-Jul-21 22:30N 40°37' W 074°03'5 1.1
2018-Jul-21 18:20N 40°33' W 074°02'310.0
2018-Jul-21 18:01N 40°36' W 074°03'4 8.2
2018-Jul-21 17:31N 40°39' W 074°07'2 1.2
2018-Jul-21 15:46N 40°38' W 074°10'0 0.0
2018-Jul-21 15:31N 40°38' W 074°10'0 0.0
2018-Jul-21 15:00N 40°38' W 074°10'1 2.6
2018-Jul-21 14:30N 40°39' W 074°08'2 1.7
2018-Jul-21 13:30N 40°40' W 074°08'0 0.3
2018-Jul-21 13:01N 40°40' W 074°08'2 3.8
2018-Jul-21 12:30N 40°39' W 074°10'0 0.3
2018-Jul-21 11:59N 40°38' W 074°10'0 0.0
2018-Jul-21 11:30N 40°38' W 074°10'0 0.0
2018-Jul-21 11:00N 40°38' W 074°10'0 0.0
2018-Jul-21 10:30N 40°38' W 074°10'0 0.0
2018-Jul-21 10:00N 40°38' W 074°10'0 0.0
2018-Jul-21 09:30N 40°38' W 074°10'0 0.0
2018-Jul-21 08:58N 40°38' W 074°10'2 3.2
2018-Jul-21 08:29N 40°38' W 074°12'0 0.6
2018-Jul-21 08:00N 40°38' W 074°12'0 0.7
2018-Jul-21 07:26N 40°38' W 074°12'2 5.4
2018-Jul-21 07:00N 40°38' W 074°09'3 6.8
2018-Jul-21 06:31N 40°39' W 074°04'1 2.4
2018-Jul-21 06:00N 40°38' W 074°04'4 7.3
2018-Jul-21 05:30N 40°39' W 074°08'1 2.4
2018-Jul-21 04:59N 40°39' W 074°10'1 1.8
2018-Jul-21 04:20N 40°39' W 074°09'1 2.8
2018-Jul-21 04:01N 40°39' W 074°08'4 7.7
2018-Jul-21 03:31N 40°39' W 074°03'2 3.3
2018-Jul-21 03:00N 40°39' W 074°06'3 6.6
2018-Jul-21 02:30N 40°38' W 074°10'0 0.0
2018-Jul-21 02:01N 40°38' W 074°10'0 0.0
2018-Jul-21 01:28N 40°38' W 074°10'0 0.0
2018-Jul-21 01:00N 40°38' W 074°10'0 0.0
2018-Jul-21 00:16N 40°38' W 074°10'0 0.0
2018-Jul-21 00:00N 40°38' W 074°10'0 0.0
2018-Jul-20 23:30N 40°38' W 074°10'0 0.0
2018-Jul-20 22:58N 40°38' W 074°10'0 0.0
2018-Jul-20 22:28N 40°38' W 074°10'0 0.0
2018-Jul-20 21:56N 40°38' W 074°10'0 0.0
2018-Jul-20 21:30N 40°38' W 074°10'0 0.0
2018-Jul-20 20:59N 40°38' W 074°10'0 0.0
2018-Jul-20 20:30N 40°38' W 074°10'0 0.0
2018-Jul-20 19:59N 40°38' W 074°10'0 0.0
2018-Jul-20 19:30N 40°38' W 074°10'3 1.3
2018-Jul-20 17:20N 40°36' W 074°12'2 4.3
2018-Jul-20 16:56N 40°38' W 074°12'0 0.1
2018-Jul-20 16:20N 40°38' W 074°12'0 0.7
2018-Jul-20 16:00N 40°38' W 074°12'3 4.9
2018-Jul-20 15:30N 40°39' W 074°09'1 2.9
2018-Jul-20 15:00N 40°40' W 074°08'0 0.0
2018-Jul-20 14:30N 40°40' W 074°08'0 0.0
2018-Jul-20 14:00N 40°40' W 074°08'2 3.8
2018-Jul-20 13:26N 40°39' W 074°10'4 6.5
2018-Jul-20 12:53N 40°36' W 074°12'1 1.0
2018-Jul-20 12:23N 40°35' W 074°13'1 1.0
2018-Jul-20 11:31N 40°36' W 074°12'0 4.7
2018-Jul-20 11:30N 40°36' W 074°12'3 5.8
2018-Jul-20 11:00N 40°39' W 074°11'2 3.0
2018-Jul-20 10:31N 40°39' W 074°09'2 3.1
2018-Jul-20 10:00N 40°40' W 074°08'1 2.0
2018-Jul-20 09:30N 40°39' W 074°09'2 4.5
2018-Jul-20 09:00N 40°39' W 074°06'2 4.9
2018-Jul-20 08:30N 40°38' W 074°03'1 2.9
2018-Jul-20 08:00N 40°39' W 074°04'4 6.4
2018-Jul-20 07:20N 40°38' W 074°10'0 0.0
2018-Jul-20 07:00N 40°38' W 074°10'0 0.0
2018-Jul-20 06:30N 40°38' W 074°10'0 0.0
2018-Jul-20 05:59N 40°38' W 074°10'0 0.0
2018-Jul-20 05:18N 40°38' W 074°10'0 0.0
2018-Jul-20 04:56N 40°38' W 074°10'0 0.0
2018-Jul-20 04:26N 40°38' W 074°10'0 0.0
2018-Jul-20 03:59N 40°38' W 074°10'0 1.0
2018-Jul-20 03:30N 40°39' W 074°09'0 0.8
2018-Jul-20 03:00N 40°39' W 074°09'1 2.5
2018-Jul-20 02:30N 40°40' W 074°08'0 0.1
2018-Jul-20 02:00N 40°40' W 074°08'2 3.1
2018-Jul-20 01:30N 40°39' W 074°09'2 3.7
2018-Jul-20 01:00N 40°41' W 074°08'1 1.0
2018-Jul-20 00:30N 40°41' W 074°09'0 0.2
2018-Jul-20 00:00N 40°41' W 074°09'0 0.0
2018-Jul-19 23:30N 40°41' W 074°09'0 0.0
2018-Jul-19 22:57N 40°41' W 074°09'0 0.0
2018-Jul-19 22:30N 40°41' W 074°09'1 2.0
2018-Jul-19 22:00N 40°40' W 074°09'0 1.0
2018-Jul-19 21:30N 40°40' W 074°09'1 1.7
2018-Jul-19 20:55N 40°39' W 074°09'2 5.6
2018-Jul-19 20:30N 40°39' W 074°06'3 5.0
2018-Jul-19 20:00N 40°37' W 074°03'0 0.8
2018-Jul-19 19:30N 40°38' W 074°04'2 4.1
2018-Jul-19 19:00N 40°39' W 074°05'1 1.4
2018-Jul-19 18:26N 40°39' W 074°06'0 0.0
2018-Jul-19 18:00N 40°39' W 074°06'0 0.0
2018-Jul-19 17:30N 40°39' W 074°06'0 0.0
2018-Jul-19 17:00N 40°39' W 074°06'0 0.1
2018-Jul-19 16:30N 40°39' W 074°06'1 1.4
2018-Jul-19 16:00N 40°39' W 074°07'0 0.0
2018-Jul-19 15:30N 40°39' W 074°07'0 0.0
2018-Jul-19 14:56N 40°39' W 074°07'0 0.0
2018-Jul-19 13:50N 40°39' W 074°07'0 0.0
2018-Jul-19 13:27N 40°39' W 074°07'2 3.7
2018-Jul-19 13:00N 40°40' W 074°08'1 1.0
2018-Jul-19 12:30N 40°40' W 074°08'0 0.0
2018-Jul-19 12:00N 40°40' W 074°08'0 0.0
2018-Jul-19 11:30N 40°40' W 074°08'0 0.0
2018-Jul-19 11:00N 40°40' W 074°08'0 0.0
2018-Jul-19 10:30N 40°40' W 074°08'0 0.0
2018-Jul-19 10:00N 40°40' W 074°08'0 0.0
2018-Jul-19 09:30N 40°40' W 074°08'0 0.0
2018-Jul-19 09:00N 40°40' W 074°08'0 0.0
2018-Jul-19 08:30N 40°40' W 074°08'0 0.0
2018-Jul-19 08:00N 40°40' W 074°08'0 0.0
2018-Jul-19 07:30N 40°40' W 074°08'0 0.0
2018-Jul-19 07:00N 40°40' W 074°08'0 0.0
2018-Jul-19 06:30N 40°40' W 074°08'0 0.0
2018-Jul-19 06:00N 40°40' W 074°08'0 0.0
2018-Jul-19 05:30N 40°40' W 074°08'0 0.0
2018-Jul-19 05:00N 40°40' W 074°08'2 3.6
2018-Jul-19 04:30N 40°39' W 074°09'2 3.0
2018-Jul-19 03:58N 40°39' W 074°11'0 0.5
2018-Jul-19 03:18N 40°38' W 074°11'1 0.1
2018-Jul-18 18:15N 40°38' W 074°10'1 3.2
2018-Jul-18 18:00N 40°39' W 074°09'2 4.3
2018-Jul-18 17:30N 40°41' W 074°08'1 1.1
2018-Jul-18 16:43N 40°42' W 074°08'1 6.2
2018-Jul-18 16:30N 40°40' W 074°08'2 2.8
2018-Jul-18 15:39N 40°38' W 074°10'0 0.0
2018-Jul-18 15:22N 40°38' W 074°10'0 0.0
2018-Jul-18 14:50N 40°38' W 074°10'0 0.0
2018-Jul-18 14:14N 40°38' W 074°10'0 0.0
2018-Jul-18 13:24N 40°38' W 074°10'0 0.0
2018-Jul-18 13:00N 40°38' W 074°10'2 4.7
2018-Jul-18 12:30N 40°41' W 074°09'0 0.3
2018-Jul-18 12:00N 40°41' W 074°08'2 3.9
2018-Jul-18 11:30N 40°39' W 074°09'2 1.6
2018-Jul-18 10:30N 40°40' W 074°08'0 0.1
2018-Jul-18 10:00N 40°40' W 074°08'2 3.1
2018-Jul-18 09:30N 40°39' W 074°08'3 5.9
2018-Jul-18 09:00N 40°39' W 074°04'4 6.6
2018-Jul-18 08:28N 40°36' W 074°03'1 3.2
2018-Jul-18 08:00N 40°37' W 074°03'4 8.9
2018-Jul-18 07:30N 40°39' W 074°09'1 1.3
2018-Jul-18 06:55N 40°38' W 074°10'0 0.0
2018-Jul-18 06:14N 40°38' W 074°10'0 0.0
2018-Jul-18 05:59N 40°38' W 074°10'0 0.0
2018-Jul-18 05:18N 40°38' W 074°10'0 0.0
2018-Jul-18 05:00N 40°38' W 074°10'3 6.7
2018-Jul-18 04:30N 40°39' W 074°06'2 5.0
2018-Jul-18 04:00N 40°39' W 074°09'2 4.6
2018-Jul-18 03:29N 40°41' W 074°08'0 0.0
2018-Jul-18 01:23N 40°41' W 074°08'1 2.2
2018-Jul-18 00:59N 40°41' W 074°09'0 0.4
2018-Jul-18 00:30N 40°41' W 074°09'2 4.2
2018-Jul-18 00:00N 40°39' W 074°09'3 5.2
2018-Jul-17 23:30N 40°39' W 074°06'3 6.6
2018-Jul-17 23:00N 40°36' W 074°03'3 5.4
2018-Jul-17 22:30N 40°39' W 074°04'4 8.2
2018-Jul-17 21:58N 40°39' W 074°10'2 3.5
2018-Jul-17 21:30N 40°40' W 074°09'1 2.9
2018-Jul-17 21:01N 40°39' W 074°07'3 6.3
2018-Jul-17 20:30N 40°38' W 074°03'1 1.5
2018-Jul-17 20:00N 40°38' W 074°03'2 4.5
2018-Jul-17 19:30N 40°40' W 074°04'0 0.1
2018-Jul-17 19:00N 40°40' W 074°04'0 0.3
2018-Jul-17 18:30N 40°40' W 074°04'1 1.0
2018-Jul-17 18:00N 40°40' W 074°03'1 2.8
2018-Jul-17 17:30N 40°38' W 074°03'1 1.4
2018-Jul-17 17:00N 40°39' W 074°04'5 8.5
2018-Jul-17 16:27N 40°39' W 074°10'0 0.2
2018-Jul-17 14:24N 40°38' W 074°10'1 2.9
2018-Jul-17 14:00N 40°39' W 074°09'2 3.6
2018-Jul-17 13:19N 40°42' W 074°09'1 2.7
2018-Jul-17 13:00N 40°41' W 074°08'3 5.2
2018-Jul-17 12:30N 40°39' W 074°08'4 7.4
2018-Jul-17 12:00N 40°39' W 074°03'1 2.9
2018-Jul-17 11:30N 40°39' W 074°05'4 5.4
2018-Jul-17 10:51N 40°38' W 074°10'2 7.2
2018-Jul-17 10:30N 40°41' W 074°09'0 0.5
2018-Jul-17 10:00N 40°41' W 074°09'2 4.9
2018-Jul-17 09:30N 40°39' W 074°10'0 0.0
2018-Jul-17 05:33N 40°38' W 074°10'0 9.1
2018-Jul-17 05:31N 40°39' W 074°10'1 3.0
2018-Jul-17 05:00N 40°40' W 074°09'0 0.3
2018-Jul-17 04:30N 40°40' W 074°09'2 3.0
2018-Jul-17 03:59N 40°39' W 074°07'3 6.3
2018-Jul-17 03:30N 40°38' W 074°03'3 5.3
2018-Jul-17 02:59N 40°39' W 074°07'2 2.3
2018-Jul-17 01:57N 40°38' W 074°10'0 0.0
2018-Jul-17 01:27N 40°38' W 074°10'4 9.7
2018-Jul-17 01:00N 40°39' W 074°04'3 6.6
2018-Jul-17 00:30N 40°39' W 074°09'1 0.9
2018-Jul-16 23:29N 40°38' W 074°10'0 0.0
2018-Jul-16 23:00N 40°38' W 074°10'0 0.0
2018-Jul-16 18:59N 40°38' W 074°10'4 7.6
2018-Jul-16 18:30N 40°39' W 074°05'1 1.6
2018-Jul-16 18:00N 40°40' W 074°04'0 0.0
2018-Jul-16 17:28N 40°40' W 074°04'0 0.0
2018-Jul-16 17:00N 40°40' W 074°04'0 0.0
2018-Jul-16 16:25N 40°40' W 074°04'0 0.0
2018-Jul-16 15:58N 40°40' W 074°04'1 1.3
2018-Jul-16 15:30N 40°39' W 074°05'4 1.1
2018-Jul-16 12:02N 40°38' W 074°10'0 6.3
2018-Jul-16 11:59N 40°39' W 074°10'2 4.7
2018-Jul-16 11:30N 40°41' W 074°09'0 0.4
2018-Jul-16 11:00N 40°41' W 074°09'2 3.7
2018-Jul-16 10:31N 40°39' W 074°09'1 2.6
2018-Jul-16 10:00N 40°40' W 074°08'2 3.3
2018-Jul-16 09:30N 40°39' W 074°09'3 4.9
2018-Jul-16 08:59N 40°39' W 074°06'3 5.5
2018-Jul-16 08:30N 40°37' W 074°03'4 8.1
2018-Jul-16 08:00N 40°39' W 074°08'1 0.3
2018-Jul-16 03:34N 40°38' W 074°10'0 0.0
2018-Jul-16 03:06N 40°38' W 074°10'0 0.1
2018-Jul-16 02:54N 40°38' W 074°10'2 4.6
2018-Jul-16 02:30N 40°39' W 074°07'5 9.0
2018-Jul-16 02:00N 40°41' W 074°02'2 3.2
2018-Jul-16 01:30N 40°41' W 074°00'2 3.3
2018-Jul-16 01:00N 40°41' W 074°02'4 8.7
2018-Jul-16 00:30N 40°39' W 074°07'2 3.0
2018-Jul-15 23:51N 40°38' W 074°10'3 7.9
2018-Jul-15 23:29N 40°39' W 074°06'510.1
2018-Jul-15 23:00N 40°42' W 074°01'2 3.8
2018-Jul-15 22:30N 40°42' W 073°58'0 0.0
2018-Jul-15 22:00N 40°42' W 073°58'0 0.0
2018-Jul-15 21:30N 40°42' W 073°58'0 0.0
2018-Jul-15 21:00N 40°42' W 073°58'0 0.0
2018-Jul-15 20:30N 40°42' W 073°58'1 3.0
2018-Jul-15 20:00N 40°42' W 074°00'5 9.6
2018-Jul-15 19:30N 40°39' W 074°05'0 0.3
2018-Jul-15 19:00N 40°39' W 074°05'0 0.0
2018-Jul-15 18:29N 40°39' W 074°05'0 0.2
2018-Jul-15 18:00N 40°39' W 074°06'3 0.7
2018-Jul-15 13:16N 40°38' W 074°10'0 0.0
2018-Jul-15 12:18N 40°38' W 074°10'0 0.0
2018-Jul-15 11:59N 40°38' W 074°10'14 4.4
2018-Jul-15 08:49N 40°47' W 073°55'2 5.8
2018-Jul-15 08:29N 40°46' W 073°57'3 7.2
2018-Jul-15 08:00N 40°42' W 073°59'4 8.9
2018-Jul-15 07:30N 40°40' W 074°04'5 9.7
2018-Jul-15 07:00N 40°39' W 074°10'0 0.0
2018-Jul-15 03:46N 40°38' W 074°10'0 0.0
2018-Jul-15 03:13N 40°38' W 074°10'0 0.0
2018-Jul-15 02:46N 40°38' W 074°10'0 0.0
2018-Jul-15 02:30N 40°38' W 074°10'0 0.0
2018-Jul-15 01:54N 40°38' W 074°10'0 0.0
2018-Jul-15 00:51N 40°38' W 074°10'0 0.0
2018-Jul-15 00:25N 40°38' W 074°10'0 0.0
2018-Jul-14 20:05N 40°38' W 074°10'2 1.0
2018-Jul-14 17:58N 40°37' W 074°12'1 1.1
2018-Jul-14 17:30N 40°38' W 074°12'0 0.1
2018-Jul-14 16:11N 40°38' W 074°12'1 6.9
2018-Jul-14 15:59N 40°39' W 074°11'2 3.5
2018-Jul-14 15:30N 40°39' W 074°09'1 1.2
2018-Jul-14 15:00N 40°40' W 074°09'2 1.8
2018-Jul-14 14:00N 40°38' W 074°10'0 0.0
2018-Jul-14 13:30N 40°38' W 074°10'0 0.0
2018-Jul-14 13:00N 40°38' W 074°10'0 0.0
2018-Jul-14 12:30N 40°38' W 074°10'0 0.0
2018-Jul-14 11:59N 40°38' W 074°10'2 3.5
2018-Jul-14 11:27N 40°39' W 074°07'1 3.1
2018-Jul-14 11:00N 40°40' W 074°08'1 2.3
2018-Jul-14 10:30N 40°41' W 074°09'0 0.6
2018-Jul-14 09:51N 40°41' W 074°09'2 5.8
2018-Jul-14 09:30N 40°39' W 074°09'1 1.2
2018-Jul-14 09:00N 40°39' W 074°09'2 3.5
2018-Jul-14 08:30N 40°39' W 074°11'0 0.6
2018-Jul-14 08:00N 40°39' W 074°11'1 2.1
2018-Jul-14 07:30N 40°38' W 074°10'0 0.0
2018-Jul-14 07:00N 40°38' W 074°10'0 0.0
2018-Jul-14 06:29N 40°38' W 074°10'0 0.0
2018-Jul-14 05:59N 40°38' W 074°10'0 0.0
2018-Jul-14 05:30N 40°38' W 074°10'0 0.0
2018-Jul-14 05:00N 40°38' W 074°10'0 0.0
2018-Jul-14 04:29N 40°38' W 074°10'0 0.0
2018-Jul-14 04:00N 40°38' W 074°10'0 0.0
2018-Jul-14 03:30N 40°38' W 074°10'0 0.0
2018-Jul-14 03:00N 40°38' W 074°10'0 0.0
2018-Jul-14 02:30N 40°38' W 074°10'0 0.1
2018-Jul-14 02:01N 40°39' W 074°10'3 7.0
2018-Jul-14 01:30N 40°39' W 074°05'0 0.0
2018-Jul-14 01:00N 40°39' W 074°05'0 0.3
2018-Jul-14 00:29N 40°39' W 074°05'2 3.6
2018-Jul-14 00:00N 40°38' W 074°03'0 0.9
2018-Jul-13 23:30N 40°38' W 074°04'4 7.4
2018-Jul-13 23:01N 40°38' W 074°09'1 1.0
2018-Jul-13 22:10N 40°38' W 074°10'0 0.0
2018-Jul-13 22:00N 40°38' W 074°10'0 0.0
2018-Jul-13 21:26N 40°38' W 074°10'0 0.0
2018-Jul-13 20:45N 40°38' W 074°10'0 0.0
2018-Jul-13 20:27N 40°38' W 074°10'0 0.0
2018-Jul-13 20:00N 40°38' W 074°10'0 0.0
2018-Jul-13 19:19N 40°38' W 074°10'0 0.0
2018-Jul-13 18:47N 40°38' W 074°10'0 0.0
2018-Jul-13 18:22N 40°38' W 074°10'0 0.0
2018-Jul-13 17:58N 40°38' W 074°10'0 0.0
2018-Jul-13 17:28N 40°38' W 074°10'0 0.0
2018-Jul-13 16:59N 40°38' W 074°10'0 0.0
2018-Jul-13 16:26N 40°38' W 074°10'0 0.0
2018-Jul-13 15:59N 40°38' W 074°10'0 0.0
2018-Jul-13 15:30N 40°38' W 074°10'0 0.0
2018-Jul-13 15:00N 40°38' W 074°10'0 0.0
2018-Jul-13 13:59N 40°38' W 074°10'0 0.0
2018-Jul-13 13:28N 40°38' W 074°10'0 0.0
2018-Jul-13 13:00N 40°38' W 074°10'0 0.0
2018-Jul-13 12:30N 40°38' W 074°10'1 2.1
2018-Jul-13 12:00N 40°39' W 074°09'2 3.9
2018-Jul-13 11:31N 40°41' W 074°09'0 0.6
2018-Jul-13 11:00N 40°41' W 074°09'2 4.6
2018-Jul-13 10:31N 40°39' W 074°09'4 7.0
2018-Jul-13 10:00N 40°39' W 074°04'3 5.9
2018-Jul-13 09:31N 40°36' W 074°03'3 6.5
2018-Jul-13 09:00N 40°39' W 074°05'3 6.1
2018-Jul-13 08:31N 40°39' W 074°09'1 2.9
2018-Jul-13 08:00N 40°40' W 074°08'1 1.9
2018-Jul-13 07:31N 40°41' W 074°09'0 0.4
2018-Jul-13 07:00N 40°41' W 074°09'2 3.1
2018-Jul-13 06:30N 40°39' W 074°09'1 1.7
2018-Jul-13 05:44N 40°38' W 074°10'0 0.0
2018-Jul-13 05:29N 40°38' W 074°10'0 0.0
2018-Jul-13 04:23N 40°38' W 074°10'0 0.0
2018-Jul-13 04:00N 40°38' W 074°10'0 0.0
2018-Jul-13 03:30N 40°38' W 074°10'0 0.5
2018-Jul-13 03:00N 40°39' W 074°10'1 1.4
2018-Jul-13 02:30N 40°39' W 074°09'2 3.9
2018-Jul-13 02:00N 40°41' W 074°08'0 0.3
2018-Jul-13 01:30N 40°41' W 074°09'2 4.6
2018-Jul-13 01:00N 40°38' W 074°10'0 0.0
2018-Jul-13 00:30N 40°38' W 074°10'0 0.0
2018-Jul-13 00:00N 40°38' W 074°10'0 0.0
2018-Jul-12 23:30N 40°38' W 074°10'0 0.0
2018-Jul-12 23:00N 40°38' W 074°10'0 0.0
2018-Jul-12 22:30N 40°38' W 074°10'0 0.0
2018-Jul-12 22:00N 40°38' W 074°10'0 0.0
2018-Jul-12 21:30N 40°38' W 074°10'0 0.0
2018-Jul-12 21:00N 40°38' W 074°10'0 0.7
2018-Jul-12 20:31N 40°39' W 074°10'4 8.8
2018-Jul-12 20:00N 40°40' W 074°04'4 7.7
2018-Jul-12 19:30N 40°39' W 074°09'2 3.5
2018-Jul-12 19:00N 40°40' W 074°08'0 0.4
2018-Jul-12 18:30N 40°40' W 074°09'2 4.0
2018-Jul-12 18:01N 40°39' W 074°06'1 2.0
2018-Jul-12 17:30N 40°39' W 074°05'0 0.7
2018-Jul-12 17:00N 40°39' W 074°06'  

Dump ship's entire track history